(°F)
88°
88°
87°
85°
83°
80°
76°
(°F)
84°
82°
81°
81°
79°
76°
73°
N
N
N
N
N
N
N
(mph)
9-13
9-13
8-13
7-13
6-13
5-11
5-9
(in)
0
0
0
0
0
0
0
(%)
0
0
0
0
0
0
0

Sun elevation

/ 41.8°
sun-icon
UV 8
05:11
21:12
Waning crescent (331°)
03:17
19:33

METAR for Renton (KRNT)

Time Conditions Temperature/
Dewpoint
Wind Visibility Weather Clouds Pressure Change Raw
VFR 87.08°F / 57.02°F 340º 13kt >10km - Clear 1014 - KRNT 262253Z 34013KT 10SM CLR 31/14 A2995 RMK AO2 SLP148 T03060139
VFR 87.98°F / 53.96°F 340º 13kt >10km - Clear 1015 - KRNT 262153Z 34013KT 10SM CLR 31/12 A2997 RMK AO2 SLP152 T03110122
VFR 87.08°F / 55.04°F 340º 13kt >10km - Clear 1015 - KRNT 262053Z 34013KT 10SM CLR 31/13 A2998 RMK AO2 SLP157 T03060128 58018
VFR 86°F / 51.08°F 330º 13kt >10km - Clear 1016 - KRNT 261953Z 33013KT 10SM CLR 30/11 A3000 RMK AO2 SLP164 T03000106
VFR 82.94°F / 51.08°F 330º 14kt >10km - Clear 1017 - KRNT 261853Z 33014KT 10SM CLR 28/11 A3002 RMK AO2 SLP171 T02830106
VFR 80.96°F / 51.08°F 330º 12kt >10km - Clear 1017 - KRNT 261753Z 33012KT 10SM CLR 27/11 A3003 RMK AO2 SLP175 T02720106 10272 20178 58013
VFR 77°F / 51.98°F 330º 11kt >10km - Clear 1017 - KRNT 261653Z 33011KT 10SM CLR 25/11 A3005 RMK AO2 SLP179 T02500111
VFR 71.96°F / 51.98°F 330º 9kt >10km - Clear 1018 - KRNT 261553Z 33009KT 10SM CLR 22/11 A3006 RMK AO2 SLP185 T02220111
VFR 68°F / 53.06°F 330º 8kt >10km - Clear 1018 - KRNT 261453Z 33008KT 10SM CLR 20/12 A3007 RMK AO2 SLP188 T02000117 53004
VFR 64.94°F / 53.96°F 340º 8kt >10km - Clear 1018 - KRNT 261353Z AUTO 34008KT 10SM CLR 18/12 A3007 RMK AO2 SLP186 T01830122
VFR 64.04°F / 53.06°F 360º 7kt >10km - Clear 1018 - KRNT 261253Z AUTO 36007KT 10SM CLR 18/12 A3006 RMK AO2 SLP183 T01780117
VFR 66.02°F / 51.98°F 350º 10kt >10km - Clear 1018 - KRNT 261153Z AUTO 35010KT 10SM CLR 19/11 A3006 RMK AO2 SLP184 T01890111 10228 20189 56004
VFR 68°F / 51.08°F 340º 11kt >10km - Clear 1018 - KRNT 261053Z AUTO 34011KT 10SM CLR 20/11 A3006 RMK AO2 SLP184 T02000106
VFR 69.08°F / 51.08°F 330º 10kt >10km - Clear 1018 - KRNT 260953Z AUTO 33010KT 10SM CLR 21/11 A3007 RMK AO2 SLP186 T02060106
VFR 68°F / 51.98°F 340º 10kt >10km - Clear 1018 - KRNT 260853Z AUTO 34010KT 10SM CLR 20/11 A3007 RMK AO2 SLP189 T02000111 51004
VFR 68°F / 55.94°F 350º 10kt >10km - Clear 1018 - KRNT 260753Z AUTO 35010KT 10SM CLR 20/13 A3007 RMK AO2 SLP187 T02000133 403000144
VFR 69.98°F / 53.96°F 340º 8kt >10km - Clear 1018 - KRNT 260653Z AUTO 34008KT 10SM CLR 21/12 A3007 RMK AO2 SLP188 T02110122
VFR 71.96°F / 53.96°F 340º 8kt >10km - Clear 1018 - KRNT 260553Z AUTO 34008KT 10SM CLR 22/12 A3006 RMK AO2 SLP185 T02220122 10294 20222 52009
VFR 75.02°F / 53.06°F 310º 7kt >10km - Clear 1018 - KRNT 260453Z AUTO 31007KT 10SM CLR 24/12 A3005 RMK AO2 SLP182 T02390117
VFR 77°F / 53.96°F 360º 3kt >10km - Clear 1017 - KRNT 260353Z 36003KT 10SM CLR 25/12 A3004 RMK AO2 SLP178 T02500122
VFR 78.08°F / 55.94°F 350º 8kt >10km - Clear 1017 - KRNT 260253Z 35008KT 10SM CLR 26/13 A3004 RMK AO2 SLP175 T02560133 55003
VFR 82.94°F / 51.98°F 330º 11kt >10km - Clear 1017 - KRNT 260153Z 33011KT 10SM CLR 28/11 A3003 RMK AO2 SLP174 T02830111
VFR 84.02°F / 53.06°F 330º 13kt >10km - Clear 1017 - KRNT 260053Z 33013KT 10SM CLR 29/12 A3004 RMK AO2 SLP175 T02890117
VFR 84.92°F / 51.98°F 330º 15kt >10km 0.13mm precipitation Clear 1017 - KRNT 252353Z 33015KT 10SM CLR 29/11 A3004 RMK AO2 RAE45 SLP178 P0000 60000 T02940111 10300 20250 56014

VFR

87.08°F / 57.02°F

[More]
Wind 340º 13kt
Visibility >10km
Weather -
Clouds Clear
Pressure 1014
Change -
Raw KRNT 262253Z 34013KT 10SM CLR 31/14 A2995 RMK AO2 SLP148 T03060139

VFR

87.98°F / 53.96°F

[More]
Wind 340º 13kt
Visibility >10km
Weather -
Clouds Clear
Pressure 1015
Change -
Raw KRNT 262153Z 34013KT 10SM CLR 31/12 A2997 RMK AO2 SLP152 T03110122

VFR

87.08°F / 55.04°F

[More]
Wind 340º 13kt
Visibility >10km
Weather -
Clouds Clear
Pressure 1015
Change -
Raw KRNT 262053Z 34013KT 10SM CLR 31/13 A2998 RMK AO2 SLP157 T03060128 58018

VFR

86°F / 51.08°F

[More]
Wind 330º 13kt
Visibility >10km
Weather -
Clouds Clear
Pressure 1016
Change -
Raw KRNT 261953Z 33013KT 10SM CLR 30/11 A3000 RMK AO2 SLP164 T03000106

VFR

82.94°F / 51.08°F

[More]
Wind 330º 14kt
Visibility >10km
Weather -
Clouds Clear
Pressure 1017
Change -
Raw KRNT 261853Z 33014KT 10SM CLR 28/11 A3002 RMK AO2 SLP171 T02830106

VFR

80.96°F / 51.08°F

[More]
Wind 330º 12kt
Visibility >10km
Weather -
Clouds Clear
Pressure 1017
Change -
Raw KRNT 261753Z 33012KT 10SM CLR 27/11 A3003 RMK AO2 SLP175 T02720106 10272 20178 58013

VFR

77°F / 51.98°F

[More]
Wind 330º 11kt
Visibility >10km
Weather -
Clouds Clear
Pressure 1017
Change -
Raw KRNT 261653Z 33011KT 10SM CLR 25/11 A3005 RMK AO2 SLP179 T02500111

VFR

71.96°F / 51.98°F

[More]
Wind 330º 9kt
Visibility >10km
Weather -
Clouds Clear
Pressure 1018
Change -
Raw KRNT 261553Z 33009KT 10SM CLR 22/11 A3006 RMK AO2 SLP185 T02220111

VFR

68°F / 53.06°F

[More]
Wind 330º 8kt
Visibility >10km
Weather -
Clouds Clear
Pressure 1018
Change -
Raw KRNT 261453Z 33008KT 10SM CLR 20/12 A3007 RMK AO2 SLP188 T02000117 53004

VFR

64.94°F / 53.96°F

[More]
Wind 340º 8kt
Visibility >10km
Weather -
Clouds Clear
Pressure 1018
Change -
Raw KRNT 261353Z AUTO 34008KT 10SM CLR 18/12 A3007 RMK AO2 SLP186 T01830122

VFR

64.04°F / 53.06°F

[More]
Wind 360º 7kt
Visibility >10km
Weather -
Clouds Clear
Pressure 1018
Change -
Raw KRNT 261253Z AUTO 36007KT 10SM CLR 18/12 A3006 RMK AO2 SLP183 T01780117

VFR

66.02°F / 51.98°F

[More]
Wind 350º 10kt
Visibility >10km
Weather -
Clouds Clear
Pressure 1018
Change -
Raw KRNT 261153Z AUTO 35010KT 10SM CLR 19/11 A3006 RMK AO2 SLP184 T01890111 10228 20189 56004

VFR

68°F / 51.08°F

[More]
Wind 340º 11kt
Visibility >10km
Weather -
Clouds Clear
Pressure 1018
Change -
Raw KRNT 261053Z AUTO 34011KT 10SM CLR 20/11 A3006 RMK AO2 SLP184 T02000106

VFR

69.08°F / 51.08°F

[More]
Wind 330º 10kt
Visibility >10km
Weather -
Clouds Clear
Pressure 1018
Change -
Raw KRNT 260953Z AUTO 33010KT 10SM CLR 21/11 A3007 RMK AO2 SLP186 T02060106

VFR

68°F / 51.98°F

[More]
Wind 340º 10kt
Visibility >10km
Weather -
Clouds Clear
Pressure 1018
Change -
Raw KRNT 260853Z AUTO 34010KT 10SM CLR 20/11 A3007 RMK AO2 SLP189 T02000111 51004

VFR

68°F / 55.94°F

[More]
Wind 350º 10kt
Visibility >10km
Weather -
Clouds Clear
Pressure 1018
Change -
Raw KRNT 260753Z AUTO 35010KT 10SM CLR 20/13 A3007 RMK AO2 SLP187 T02000133 403000144

VFR

69.98°F / 53.96°F

[More]
Wind 340º 8kt
Visibility >10km
Weather -
Clouds Clear
Pressure 1018
Change -
Raw KRNT 260653Z AUTO 34008KT 10SM CLR 21/12 A3007 RMK AO2 SLP188 T02110122

VFR

71.96°F / 53.96°F

[More]
Wind 340º 8kt
Visibility >10km
Weather -
Clouds Clear
Pressure 1018
Change -
Raw KRNT 260553Z AUTO 34008KT 10SM CLR 22/12 A3006 RMK AO2 SLP185 T02220122 10294 20222 52009

VFR

75.02°F / 53.06°F

[More]
Wind 310º 7kt
Visibility >10km
Weather -
Clouds Clear
Pressure 1018
Change -
Raw KRNT 260453Z AUTO 31007KT 10SM CLR 24/12 A3005 RMK AO2 SLP182 T02390117

VFR

77°F / 53.96°F

[More]
Wind 360º 3kt
Visibility >10km
Weather -
Clouds Clear
Pressure 1017
Change -
Raw KRNT 260353Z 36003KT 10SM CLR 25/12 A3004 RMK AO2 SLP178 T02500122

VFR

78.08°F / 55.94°F

[More]
Wind 350º 8kt
Visibility >10km
Weather -
Clouds Clear
Pressure 1017
Change -
Raw KRNT 260253Z 35008KT 10SM CLR 26/13 A3004 RMK AO2 SLP175 T02560133 55003

VFR

82.94°F / 51.98°F

[More]
Wind 330º 11kt
Visibility >10km
Weather -
Clouds Clear
Pressure 1017
Change -
Raw KRNT 260153Z 33011KT 10SM CLR 28/11 A3003 RMK AO2 SLP174 T02830111

VFR

84.02°F / 53.06°F

[More]
Wind 330º 13kt
Visibility >10km
Weather -
Clouds Clear
Pressure 1017
Change -
Raw KRNT 260053Z 33013KT 10SM CLR 29/12 A3004 RMK AO2 SLP175 T02890117

VFR

84.92°F / 51.98°F

[More]
Wind 330º 15kt
Visibility >10km
Weather 0.13mm precipitation
Clouds Clear
Pressure 1017
Change -
Raw KRNT 252353Z 33015KT 10SM CLR 29/11 A3004 RMK AO2 RAE45 SLP178 P0000 60000 T02940111 10300 20250 56014

Radar and precipitation nowcast for Renton

Drizzle
Light
Moderate
Heavy
Very Heavy
Hail

The location marker is placed on Renton. This animation shows the precipitation radar for the last hour, as well as a 1h forecast. Drizzle or light snow fall might be invisible for the radar. Precipitation intensity is colour coded, ranging from light blue to orange.

Current satellite images for Renton, United States

The location marker is placed on Renton. [More]

The real-time satellite image combines visible light during daytime with infrared radiation during nighttime. At night, the image is not dark as infrared radiation can detect temperature differences. Unfortunately, low clouds and fog are difficult to distinguish from ground temperatures and thus can be almost invisible during the night. Meteosat satellite images for Europe are updated in real-time every 5 minutes. GOES-16/GOES-17 (North & South America) and Himawari (Asia) images update every 10 minutes.

Back to top